Time;durP1;ratioP1;P1;durP2;ratioP2;P2;SDS_P1;SDS_P2;PMS_P1;PMS_P2;Temp;Humidity;BMP_temperature;BMP_pressure;BME280_temperature;BME280_humidity;BME280_pressure;Samples;Min_cycle;Max_cycle;Signal;HPM_P1;HPM_P2
2021/07/28 00:01:31;;;;;;;16.17;6.30;;;;;;;23.32;57.46;99843.94;4898552;28;101655;-82
2021/07/28 00:03:57;;;;;;;13.93;6.30;;;;;;;23.25;57.72;99840.19;4898839;28;100855;-82
2021/07/28 00:06:23;;;;;;;10.65;7.00;;;;;;;23.24;57.75;99847.38;4916647;28;96575;-81
2021/07/28 00:08:50;;;;;;;14.57;6.00;;;;;;;23.30;57.40;99832.56;4947069;28;97005;-81
2021/07/28 00:11:18;;;;;;;15.93;6.40;;;;;;;23.30;57.19;99837.91;4914048;28;101047;-86
2021/07/28 00:13:45;;;;;;;10.90;5.93;;;;;;;23.13;57.76;99831.47;4914849;28;100991;-81
2021/07/28 00:16:13;;;;;;;13.60;7.07;;;;;;;23.20;57.81;99837.94;4930975;28;96935;-81
2021/07/28 00:18:51;;;;;;;9.82;5.88;;;;;;;23.14;58.05;99837.66;4930595;28;96800;-80
2021/07/28 00:24:02;;;;;;;13.00;6.50;;;;;;;23.05;57.87;99826.84;4931385;28;98080;-80
2021/07/28 00:26:27;;;;;;;13.55;6.68;;;;;;;23.08;57.88;99831.06;4914718;28;96846;-80
2021/07/28 00:28:53;;;;;;;10.93;6.78;;;;;;;23.10;57.53;99833.59;4898966;28;98130;-81
2021/07/28 00:31:19;;;;;;;24.52;7.65;;;;;;;23.14;57.52;99821.59;4910793;28;101374;-85
2021/07/28 00:33:44;;;;;;;10.40;6.53;;;;;;;23.06;58.06;99822.31;4911352;28;97494;-81
2021/07/28 00:36:10;;;;;;;9.50;5.50;;;;;;;22.98;57.77;99828.41;4927800;28;97078;-80
2021/07/28 00:38:35;;;;;;;7.88;6.10;;;;;;;23.01;57.92;99819.25;4911418;28;96881;-80
2021/07/28 00:41:02;;;;;;;17.05;6.70;;;;;;;23.08;57.61;99820.34;4927377;28;101510;-80
2021/07/28 00:43:29;;;;;;;12.02;5.72;;;;;;;22.95;58.16;99818.00;4910360;28;97722;-81
2021/07/28 00:45:55;;;;;;;14.63;6.75;;;;;;;22.85;58.32;99814.44;4910801;28;97894;-81
2021/07/28 00:48:20;;;;;;;13.63;5.88;;;;;;;22.77;58.59;99806.28;4916137;28;97076;-88
2021/07/28 00:50:46;;;;;;;11.25;6.65;;;;;;;22.88;58.42;99807.97;4912669;28;98610;-82
2021/07/28 00:53:18;;;;;;;10.02;6.03;;;;;;;22.74;58.88;99804.72;4913083;28;98360;-82
2021/07/28 00:55:46;;;;;;;11.30;6.47;;;;;;;22.93;58.29;99805.72;4898467;28;96915;-81
2021/07/28 00:58:11;;;;;;;14.50;7.07;;;;;;;22.74;58.54;99804.72;4898405;28;96971;-80
2021/07/28 01:00:37;;;;;;;10.50;6.03;;;;;;;22.73;59.08;99805.72;4913734;28;101123;-80
2021/07/28 01:03:03;;;;;;;11.00;6.18;;;;;;;22.80;58.43;99803.31;4931319;28;97412;-80
2021/07/28 01:05:28;;;;;;;13.05;7.13;;;;;;;22.73;58.86;99804.91;4914256;28;97259;-80
2021/07/28 01:07:54;;;;;;;15.73;6.43;;;;;;;22.57;59.28;99810.81;4914520;28;97182;-81
2021/07/28 01:10:19;;;;;;;11.30;6.05;;;;;;;22.51;59.51;99814.88;4909875;28;101234;-86
2021/07/28 01:12:51;;;;;;;10.60;6.72;;;;;;;22.67;59.10;99808.16;4929094;28;100561;-81
2021/07/28 01:15:33;;;;;;;8.43;6.53;;;;;;;22.55;59.28;99808.28;4930508;28;96966;-80
2021/07/28 01:18:04;;;;;;;16.80;6.88;;;;;;;22.39;60.17;99810.66;4930363;28;96774;-80
2021/07/28 01:20:38;;;;;;;13.75;6.50;;;;;;;22.33;60.19;99808.56;4929679;28;100998;-80
2021/07/28 01:23:08;;;;;;;16.20;5.90;;;;;;;22.42;59.96;99809.53;4930212;28;101629;-80
2021/07/28 01:25:34;;;;;;;18.77;6.63;;;;;;;22.41;60.28;99807.88;4929594;28;97096;-80
2021/07/28 01:28:01;;;;;;;11.13;6.53;;;;;;;22.28;60.37;99803.66;4898616;28;96848;-81
2021/07/28 01:30:27;;;;;;;15.07;6.57;;;;;;;22.24;60.40;99806.72;4932822;28;98585;-81
2021/07/28 01:32:52;;;;;;;11.25;6.55;;;;;;;22.27;60.42;99809.97;4917151;28;100985;-80
2021/07/28 01:35:19;;;;;;;21.63;6.80;;;;;;;22.25;60.56;99806.59;4916944;28;97939;-80
2021/07/28 01:37:45;;;;;;;14.57;7.03;;;;;;;22.25;60.51;99801.25;4933354;28;97386;-80
2021/07/28 01:40:12;;;;;;;14.02;7.18;;;;;;;22.15;61.24;99795.00;4933401;28;101223;-80
2021/07/28 01:42:45;;;;;;;8.98;6.53;;;;;;;22.08;60.99;99800.06;4916140;28;101317;-80
2021/07/28 01:45:12;;;;;;;10.38;5.85;;;;;;;22.15;60.88;99793.19;4901336;28;96947;-80
2021/07/28 01:47:38;;;;;;;18.05;7.30;;;;;;;22.07;61.28;99789.50;4917016;28;97169;-81
2021/07/28 01:50:07;;;;;;;14.27;8.02;;;;;;;22.20;60.87;99787.47;4917097;28;101463;-80
2021/07/28 01:52:34;;;;;;;10.15;7.45;;;;;;;22.11;61.03;99788.28;4917348;28;98351;-81
2021/07/28 01:55:00;;;;;;;13.05;6.80;;;;;;;21.98;61.53;99783.16;4917425;28;96865;-81
2021/07/28 01:57:26;;;;;;;14.05;6.95;;;;;;;21.89;61.87;99787.50;4900848;28;96815;-84
2021/07/28 01:59:52;;;;;;;12.57;6.50;;;;;;;21.98;61.45;99790.34;4916284;28;101115;-80
2021/07/28 02:02:17;;;;;;;18.90;6.72;;;;;;;21.99;61.68;99792.91;4900902;28;101745;-80
2021/07/28 02:04:43;;;;;;;10.90;6.82;;;;;;;22.03;61.22;99799.63;4932937;28;96619;-81
2021/07/28 02:07:08;;;;;;;19.08;7.28;;;;;;;22.09;61.34;99804.44;4916988;28;96862;-80
2021/07/28 02:09:34;;;;;;;14.55;6.78;;;;;;;22.05;61.36;99797.69;4900248;28;101372;-81
2021/07/28 02:11:59;;;;;;;14.63;7.75;;;;;;;21.92;61.82;99791.75;4900760;28;101287;-80
2021/07/28 02:14:25;;;;;;;10.32;7.18;;;;;;;21.99;61.49;99784.88;4900499;28;96617;-84
2021/07/28 02:16:51;;;;;;;12.05;6.90;;;;;;;21.97;61.57;99789.50;4933160;28;96795;-80
2021/07/28 02:19:17;;;;;;;13.30;7.22;;;;;;;21.82;62.14;99790.88;4933010;28;98208;-80
2021/07/28 02:21:42;;;;;;;14.30;7.20;;;;;;;;;;4900097;28;101105;-80
2021/07/28 02:24:07;;;;;;;11.73;6.53;;;;;;;21.84;62.05;99789.75;4932597;28;96604;-80
2021/07/28 02:26:33;;;;;;;14.40;7.60;;;;;;;21.74;62.50;99785.38;4916235;28;96979;-80
2021/07/28 02:28:59;;;;;;;17.98;7.00;;;;;;;21.59;62.99;99783.09;4932589;28;97889;-80
2021/07/28 02:31:24;;;;;;;12.80;7.03;;;;;;;21.66;62.89;99784.22;4916092;28;101362;-80
2021/07/28 02:33:50;;;;;;;11.20;6.97;;;;;;;21.70;62.49;99779.47;4931989;28;96526;-81
2021/07/28 02:36:15;;;;;;;20.60;7.80;;;;;;;21.64;62.79;99778.19;4932513;28;96799;-80
2021/07/28 02:38:40;;;;;;;13.88;6.57;;;;;;;21.73;62.56;99776.53;4932120;28;98125;-82
2021/07/28 02:41:06;;;;;;;15.55;6.55;;;;;;;21.74;62.64;99780.88;4900284;28;101393;-81
2021/07/28 02:43:31;;;;;;;16.80;7.68;;;;;;;21.69;62.79;99780.44;4931924;28;96664;-82
2021/07/28 02:45:57;;;;;;;12.98;7.10;;;;;;;21.61;62.99;99785.59;4916516;28;96656;-81
2021/07/28 02:48:22;;;;;;;15.88;7.38;;;;;;;21.57;63.17;99792.22;4899778;28;101549;-81
2021/07/28 02:50:48;;;;;;;13.88;6.65;;;;;;;21.46;63.10;99785.13;4899661;28;101205;-81
2021/07/28 02:53:13;;;;;;;11.23;7.55;;;;;;;21.53;63.29;99786.31;4900154;28;96602;-80
2021/07/28 02:55:39;;;;;;;25.50;7.43;;;;;;;21.51;63.41;99788.25;4899664;28;96864;-80
2021/07/28 02:58:04;;;;;;;10.55;7.35;;;;;;;21.50;63.49;99789.25;4916243;28;98412;-80
2021/07/28 03:00:30;;;;;;;15.50;7.88;;;;;;;21.50;63.50;99797.25;4916119;28;96963;-84
2021/07/28 03:02:55;;;;;;;11.55;6.78;;;;;;;21.49;63.45;99787.53;4915611;28;96766;-80
2021/07/28 03:05:21;;;;;;;16.70;7.53;;;;;;;21.50;63.26;99775.03;4915587;28;97000;-80
2021/07/28 03:07:46;;;;;;;14.50;7.80;;;;;;;21.58;63.10;99781.38;4914945;28;101027;-80
2021/07/28 03:10:12;;;;;;;18.45;8.35;;;;;;;21.53;63.00;99777.44;4916095;28;98424;-80
2021/07/28 03:12:38;;;;;;;12.55;7.93;;;;;;;21.50;63.14;99775.03;4898898;28;97433;-80
2021/07/28 03:15:04;;;;;;;18.95;7.90;;;;;;;21.40;63.39;99770.50;4916190;28;96869;-80
2021/07/28 03:17:30;;;;;;;13.23;7.80;;;;;;;21.31;63.48;99768.63;4915636;28;99849;-84
2021/07/28 03:19:55;;;;;;;22.38;8.25;;;;;;;21.28;63.56;99774.22;4915376;28;101726;-80
2021/07/28 03:22:21;;;;;;;14.02;7.80;;;;;;;21.42;62.97;99771.22;4916129;28;96950;-80
2021/07/28 03:24:46;;;;;;;18.75;8.05;;;;;;;21.36;63.20;99771.75;4915308;28;97027;-80
2021/07/28 03:27:12;;;;;;;12.07;7.70;;;;;;;21.29;63.38;99780.41;4915522;28;102006;-80
2021/07/28 03:29:37;;;;;;;18.80;8.60;;;;;;;21.28;63.35;99784.91;4915395;28;101413;-81
2021/07/28 03:32:03;;;;;;;15.52;8.43;;;;;;;21.40;63.08;99775.84;4899748;28;97046;-80
2021/07/28 03:34:29;;;;;;;11.63;8.27;;;;;;;21.42;62.82;99776.56;4899436;28;96991;-81
2021/07/28 03:36:54;;;;;;;16.25;8.43;;;;;;;21.39;63.35;99774.16;4914787;28;98183;-81
2021/07/28 03:39:20;;;;;;;12.70;8.90;;;;;;;21.28;63.56;99776.06;4915599;28;98479;-80
2021/07/28 03:41:45;;;;;;;18.25;8.13;;;;;;;21.36;63.35;99765.56;4914642;28;97186;-80
2021/07/28 03:44:11;;;;;;;17.48;8.90;;;;;;;21.37;63.50;99767.25;4915754;28;97146;-80
2021/07/28 03:46:36;;;;;;;13.57;8.05;;;;;;;21.42;63.45;99773.06;4914386;28;101682;-81
2021/07/28 03:49:02;;;;;;;15.40;8.40;;;;;;;21.37;63.42;99768.09;4915136;28;101248;-80
2021/07/28 03:51:27;;;;;;;13.30;8.35;;;;;;;21.42;63.70;99770.38;4914864;28;97032;-80
2021/07/28 03:53:53;;;;;;;18.65;9.80;;;;;;;21.48;63.19;99765.34;4899204;28;97170;-81
2021/07/28 03:56:22;;;;;;;13.45;8.30;;;;;;;21.52;63.49;99783.75;4914897;28;101331;-81
2021/07/28 03:58:53;;;;;;;18.40;9.15;;;;;;;21.41;63.65;99774.00;4931276;28;98548;-80
2021/07/28 04:01:20;;;;;;;18.00;8.25;;;;;;;21.33;64.10;99777.34;4898944;28;97533;-80
2021/07/28 04:03:45;;;;;;;21.98;8.95;;;;;;;21.31;64.04;99783.78;4914756;28;97394;-80
2021/07/28 04:06:11;;;;;;;14.82;9.43;;;;;;;21.37;63.84;99780.59;4898982;28;101348;-80
2021/07/28 04:08:36;;;;;;;13.73;8.35;;;;;;;21.24;64.18;99772.81;4914691;28;101355;-84
2021/07/28 04:11:02;;;;;;;13.63;9.27;;;;;;;21.29;64.52;99773.22;4915147;28;96511;-80
2021/07/28 04:13:27;;;;;;;17.60;9.05;;;;;;;21.27;63.92;99767.19;4898988;28;96951;-80
2021/07/28 04:15:53;;;;;;;17.88;8.30;;;;;;;21.20;64.45;99769.53;4930508;28;98173;-76
2021/07/28 04:18:18;;;;;;;18.23;8.45;;;;;;;21.36;63.95;99761.09;4914601;28;101256;-76
2021/07/28 04:20:44;;;;;;;24.80;8.55;;;;;;;21.12;64.89;99771.19;4913761;28;97274;-77
2021/07/28 04:23:09;;;;;;;17.33;8.27;;;;;;;21.07;64.88;99771.59;4914526;28;97059;-76
2021/07/28 04:25:35;;;;;;;20.15;8.63;;;;;;;21.17;64.53;99766.28;4897629;28;101280;-81
2021/07/28 04:28:00;;;;;;;14.40;8.55;;;;;;;21.18;64.53;99773.34;4929792;28;98605;-76
2021/07/28 04:30:26;;;;;;;13.15;7.78;;;;;;;21.21;64.37;99765.91;4898251;28;96990;-76
2021/07/28 04:32:51;;;;;;;13.32;8.57;;;;;;;21.35;63.98;99763.84;4913309;28;96945;-76
2021/07/28 04:35:17;;;;;;;14.85;9.07;;;;;;;21.36;64.04;99757.53;4914048;28;101380;-76
2021/07/28 04:37:42;;;;;;;13.32;8.43;;;;;;;21.34;64.29;99760.34;4913378;28;98115;-77
2021/07/28 04:40:08;;;;;;;13.30;8.35;;;;;;;21.53;63.60;99762.28;4898125;28;96825;-76
2021/07/28 04:42:36;;;;;;;16.20;8.90;;;;;;;21.59;63.29;99763.56;4913773;28;96954;-76
2021/07/28 04:45:01;;;;;;;16.35;8.88;;;;;;;21.74;63.17;99764.84;4928998;28;97971;-76
2021/07/28 04:47:27;;;;;;;14.98;8.52;;;;;;;21.85;63.17;99761.22;4930474;28;97905;-76
2021/07/28 04:49:53;;;;;;;14.68;7.55;;;;;;;22.15;62.23;99760.25;4896655;28;97571;-76
2021/07/28 04:52:24;;;;;;;11.65;8.20;;;;;;;22.21;62.21;99761.56;4913643;28;97233;-77
2021/07/28 04:54:50;;;;;;;;;;;;;;;22.15;61.95;99762.94;4929971;28;98189;-76
2021/07/28 04:57:15;;;;;;;19.88;8.55;;;;;;;22.13;61.93;99755.03;4946159;28;98013;-76
2021/07/28 04:59:41;;;;;;;15.02;8.45;;;;;;;22.03;62.32;99759.56;4913120;28;96940;-80
2021/07/28 05:02:06;;;;;;;15.77;8.02;;;;;;;22.31;61.66;99751.69;4929788;28;96836;-76
2021/07/28 05:04:32;;;;;;;17.65;8.88;;;;;;;22.26;61.78;99754.81;4933352;28;98656;-76
2021/07/28 05:06:57;;;;;;;21.58;8.63;;;;;;;22.37;61.91;99754.69;4900432;28;101290;-76
2021/07/28 05:09:22;;;;;;;19.80;7.55;;;;;;;22.42;61.44;99751.56;4901111;28;96590;-76
2021/07/28 05:11:48;;;;;;;26.55;9.20;;;;;;;22.66;60.61;99748.47;4900027;28;97007;-76
2021/07/28 05:14:13;;;;;;;20.42;8.52;;;;;;;22.47;61.10;99745.81;4916319;28;101465;-76
2021/07/28 05:16:39;;;;;;;14.88;8.07;;;;;;;22.43;61.33;99747.91;4900617;28;101838;-79
2021/07/28 05:19:04;;;;;;;15.13;8.30;;;;;;;22.51;61.56;99739.16;4916811;28;96621;-76
2021/07/28 05:21:30;;;;;;;14.88;8.35;;;;;;;22.63;61.21;99748.75;4916976;28;96952;-77
2021/07/28 05:23:55;;;;;;;14.55;8.25;;;;;;;22.85;60.79;99746.72;4915900;28;98210;-77
2021/07/28 05:26:21;;;;;;;14.32;7.63;;;;;;;22.90;60.83;99745.28;4900620;28;101670;-77
2021/07/28 05:28:46;;;;;;;14.90;8.38;;;;;;;23.43;59.57;99747.38;4916389;28;96585;-77
2021/07/28 05:31:13;;;;;;;13.57;7.60;;;;;;;23.82;58.74;99752.53;4933508;28;96896;-76
2021/07/28 05:33:39;;;;;;;24.20;9.57;;;;;;;24.15;57.80;99755.56;4916891;28;98595;-77
2021/07/28 05:36:04;;;;;;;17.65;8.73;;;;;;;24.18;57.32;99756.09;4915491;28;97998;-76
2021/07/28 05:38:30;;;;;;;20.08;8.88;;;;;;;24.48;56.24;99751.34;4916539;28;96547;-76
2021/07/28 05:40:55;;;;;;;10.93;7.95;;;;;;;24.47;56.27;99757.72;4899744;28;97059;-76
2021/07/28 05:43:25;;;;;;;12.75;8.38;;;;;;;24.35;56.31;99753.56;4915009;28;98170;-76
2021/07/28 05:45:51;;;;;;;10.32;8.07;;;;;;;24.14;56.87;99751.16;4930619;28;98636;-76
2021/07/28 05:48:17;;;;;;;15.32;8.75;;;;;;;24.10;57.13;99752.47;4891288;28;96979;-77
2021/07/28 05:50:43;;;;;;;14.35;8.43;;;;;;;24.36;56.65;99750.72;4931161;28;97839;-81
2021/07/28 05:53:08;;;;;;;14.27;8.25;;;;;;;24.34;56.27;99755.38;4930474;28;102333;-77
2021/07/28 05:55:34;;;;;;;13.10;8.98;;;;;;;24.26;57.10;99747.28;4932104;28;97464;-76
2021/07/28 05:58:00;;;;;;;17.25;7.55;;;;;;;24.39;56.80;99749.56;4930375;28;97002;-81
2021/07/28 06:00:28;;;;;;;22.50;7.95;;;;;;;24.49;56.59;99753.00;4897510;28;96995;-77
2021/07/28 06:02:54;;;;;;;17.88;8.20;;;;;;;24.83;55.77;99760.31;4913114;28;97889;-78
2021/07/28 06:05:20;;;;;;;18.02;8.90;;;;;;;24.60;56.36;99755.44;4929961;28;97906;-77
2021/07/28 06:07:46;;;;;;;16.13;8.00;;;;;;;24.60;56.78;99755.44;4913495;28;96738;-80
2021/07/28 06:10:12;;;;;;;14.13;7.63;;;;;;;25.71;54.28;99743.97;4913607;28;97218;-77
2021/07/28 06:12:38;;;;;;;10.77;8.05;;;;;;;25.72;54.02;99737.63;4913386;28;101688;-78
2021/07/28 06:15:04;;;;;;;16.63;7.90;;;;;;;25.31;55.06;99748.22;4911973;28;101443;-77
2021/07/28 06:17:30;;;;;;;14.23;8.40;;;;;;;25.52;54.40;99754.00;4899320;28;97239;-76
2021/07/28 06:19:55;;;;;;;16.15;8.00;;;;;;;24.73;56.39;99748.84;4896942;28;96928;-77
2021/07/28 06:22:21;;;;;;;14.32;7.53;;;;;;;24.60;57.07;99747.41;4896665;28;101421;-78
2021/07/28 06:24:46;;;;;;;14.80;7.78;;;;;;;24.73;57.09;99752.38;4912565;28;101439;-80
2021/07/28 06:27:12;;;;;;;18.80;8.52;;;;;;;25.12;56.09;99757.31;4896074;28;97822;-76
2021/07/28 06:29:37;;;;;;;12.32;7.85;;;;;;;25.48;55.07;99747.28;4929466;28;97179;-76
2021/07/28 06:32:03;;;;;;;14.70;7.10;;;;;;;25.63;54.74;99750.19;4921646;28;97461;-78
2021/07/28 06:34:28;;;;;;;13.60;7.90;;;;;;;26.16;53.67;99743.59;4930399;28;98082;-76
2021/07/28 06:36:54;;;;;;;12.75;7.38;;;;;;;26.68;52.33;99747.00;4908660;28;96857;-77
2021/07/28 06:39:19;;;;;;;11.18;7.05;;;;;;;26.56;52.58;99750.03;4918519;28;98051;-77
2021/07/28 06:41:45;;;;;;;11.15;7.78;;;;;;;27.98;49.39;99749.25;4913354;28;97795;-81
2021/07/28 06:44:10;;;;;;;12.23;7.82;;;;;;;30.45;44.38;99748.19;4912130;28;102240;-77
2021/07/28 06:46:36;;;;;;;13.52;7.32;;;;;;;32.24;41.05;99751.88;4943083;28;98314;-76
2021/07/28 06:49:01;;;;;;;11.27;6.80;;;;;;;32.78;39.67;99754.63;4927449;28;97110;-78
2021/07/28 06:51:29;;;;;;;10.15;6.50;;;;;;;33.77;38.68;99745.38;4938425;28;101169;-77
2021/07/28 06:53:55;;;;;;;9.43;6.43;;;;;;;34.02;37.83;99740.00;4911995;28;101273;-78
2021/07/28 06:56:21;;;;;;;10.50;5.85;;;;;;;34.71;37.24;99738.28;4928714;28;97131;-77
2021/07/28 06:58:46;;;;;;;8.80;5.20;;;;;;;35.04;36.36;99731.66;4932779;28;97167;-80
2021/07/28 07:01:11;;;;;;;12.80;5.80;;;;;;;35.53;35.66;99736.13;4930840;28;98454;-77
2021/07/28 07:03:37;;;;;;;8.90;5.38;;;;;;;34.74;36.44;99728.81;4911978;28;101348;-79
2021/07/28 07:06:03;;;;;;;10.02;5.75;;;;;;;34.98;36.25;99735.28;4911469;28;97058;-79
2021/07/28 07:08:29;;;;;;;9.32;5.43;;;;;;;33.70;38.55;99725.53;4932945;28;97259;-77
2021/07/28 07:10:55;;;;;;;11.77;5.15;;;;;;;32.39;41.20;99724.53;4908134;28;101052;-79
2021/07/28 07:13:21;;;;;;;7.65;5.72;;;;;;;31.76;41.82;99730.22;4911027;28;100667;-78
2021/07/28 07:15:46;;;;;;;11.25;6.43;;;;;;;31.38;42.68;99723.63;4886222;28;97745;-79
2021/07/28 07:18:12;;;;;;;14.48;5.03;;;;;;;30.85;43.76;99716.84;4923866;28;98163;-79
2021/07/28 07:20:38;;;;;;;10.35;5.50;;;;;;;31.50;43.00;99728.25;4929981;28;101410;-78
2021/07/28 07:23:03;;;;;;;10.48;5.03;;;;;;;32.58;40.37;99732.91;4913431;28;101306;-78
2021/07/28 07:25:29;;;;;;;12.07;5.82;;;;;;;34.34;38.12;99726.41;4929519;28;96885;-78
2021/07/28 07:27:54;;;;;;;9.73;5.03;;;;;;;34.23;38.34;99709.72;4928172;28;97225;-79
2021/07/28 07:30:20;;;;;;;8.15;4.90;;;;;;;35.06;36.57;99718.66;4928643;28;102086;-79
2021/07/28 07:33:36;;;;;;;9.35;4.95;;;;;;;35.53;35.46;99718.94;4912240;28;98406;-79
2021/07/28 07:35:31;;;;;;;10.05;5.15;;;;;;;35.08;36.14;99714.66;4913793;28;96846;-79
2021/07/28 07:37:57;;;;;;;13.13;4.78;;;;;;;34.69;37.09;99715.88;4935262;28;96795;-81
2021/07/28 07:40:22;;;;;;;7.13;4.50;;;;;;;36.02;35.52;99708.81;4898102;28;101370;-81
2021/07/28 07:42:48;;;;;;;9.88;4.50;;;;;;;36.11;35.17;99712.09;4914966;28;97850;-84
2021/07/28 07:45:13;;;;;;;10.48;5.55;;;;;;;36.50;34.83;99716.88;4909802;28;97069;-85
2021/07/28 07:47:39;;;;;;;7.85;4.53;;;;;;;35.64;35.46;99707.28;4911020;28;97456;-88
2021/07/28 07:50:05;;;;;;;7.20;4.60;;;;;;;35.89;35.26;99706.28;4897316;28;101330;-82
2021/07/28 07:52:30;;;;;;;5.72;4.63;;;;;;;36.95;33.76;99707.28;4896789;28;101751;-83
2021/07/28 07:54:56;;;;;;;10.27;4.82;;;;;;;38.16;32.16;99703.66;4913992;28;96799;-88
2021/07/28 07:57:21;;;;;;;6.88;4.10;;;;;;;36.34;34.42;99701.19;4898449;28;97210;-84
2021/07/28 07:59:47;;;;;;;7.32;4.20;;;;;;;35.60;35.18;99706.06;4927185;28;100921;-84
2021/07/28 08:02:12;;;;;;;8.65;4.25;;;;;;;35.47;35.82;99701.59;4910586;28;98063;-84
2021/07/28 08:04:38;;;;;;;5.22;4.10;;;;;;;36.09;35.32;99698.66;4895378;28;97500;-82
2021/07/28 08:07:03;;;;;;;8.05;3.70;;;;;;;35.71;35.92;99699.00;4926507;28;97614;-85
2021/07/28 08:09:29;;;;;;;5.93;4.20;;;;;;;35.33;37.01;99695.47;4885499;28;101743;-85
2021/07/28 08:11:56;;;;;;;8.25;4.05;;;;;;;35.81;35.62;99702.84;4912770;28;101919;-85
2021/07/28 08:14:22;;;;;;;8.32;4.10;;;;;;;35.52;36.77;99701.75;4910223;28;96993;-85
2021/07/28 08:16:47;;;;;;;7.40;4.15;;;;;;;35.36;36.06;99705.91;4909961;28;97133;-78
2021/07/28 08:19:13;;;;;;;7.28;4.28;;;;;;;34.11;37.84;99706.06;4920169;28;101202;-79
2021/07/28 08:21:38;;;;;;;5.60;4.32;;;;;;;34.08;38.22;99701.03;4893439;28;100694;-77
2021/07/28 08:24:04;;;;;;;6.38;4.60;;;;;;;34.21;37.92;99706.41;4907973;28;97463;-81
2021/07/28 08:26:29;;;;;;;7.18;4.38;;;;;;;34.93;36.83;99706.78;4893272;28;99368;-79
2021/07/28 08:28:55;;;;;;;6.93;4.03;;;;;;;35.40;36.22;99703.56;4899301;28;101241;-84
2021/07/28 08:31:21;;;;;;;9.70;4.50;;;;;;;35.11;36.96;99703.28;4914867;28;100874;-79
2021/07/28 08:33:46;;;;;;;7.03;4.10;;;;;;;34.93;37.03;99708.69;4903489;28;96798;-79
2021/07/28 08:36:12;;;;;;;10.05;4.85;;;;;;;35.76;36.16;99712.78;4923305;28;97420;-78
2021/07/28 08:38:38;;;;;;;6.82;3.72;;;;;;;35.18;37.20;99708.66;4945548;28;101507;-77
2021/07/28 08:41:04;;;;;;;6.32;4.20;;;;;;;34.58;37.31;99701.06;4914018;28;100020;-78
2021/07/28 08:43:33;;;;;;;7.47;4.57;;;;;;;34.43;37.96;99708.72;4913587;28;97488;-78
2021/07/28 08:46:00;;;;;;;;;;;;;;;33.41;39.24;99714.13;4927917;28;97025;-78
2021/07/28 08:48:29;;;;;;;10.85;4.28;;;;;;;33.15;39.95;99723.22;4924488;28;99779;-80
2021/07/28 08:50:55;;;;;;;6.60;4.00;;;;;;;33.31;39.64;99722.75;4890680;28;102144;-83
2021/07/28 08:53:22;;;;;;;8.20;4.07;;;;;;;33.58;40.13;99728.94;4926593;28;97204;-82
2021/07/28 08:55:47;;;;;;;14.70;4.60;;;;;;;33.81;40.01;99724.88;4912992;28;97295;-82
2021/07/28 08:58:15;;;;;;;12.50;4.70;;;;;;;33.70;39.23;99710.06;4927916;28;101285;-82
2021/07/28 09:00:44;;;;;;;10.10;3.78;;;;;;;34.15;37.24;99712.75;4897088;28;101377;-82
2021/07/28 09:03:11;;;;;;;6.22;4.20;;;;;;;34.16;38.34;99708.94;4928436;28;97167;-79
2021/07/28 09:05:48;;;;;;;7.80;4.00;;;;;;;33.49;38.59;99719.34;4925018;28;97404;-80
2021/07/28 09:08:31;;;;;;;5.70;4.60;;;;;;;34.48;37.61;99707.00;4923726;28;101727;-83
2021/07/28 09:11:05;;;;;;;5.22;4.38;;;;;;;34.50;37.34;99712.22;4897745;28;101211;-85
2021/07/28 09:13:38;;;;;;;8.02;4.03;;;;;;;33.63;38.54;99708.41;4898073;28;97184;-80
2021/07/28 09:16:09;;;;;;;5.82;4.13;;;;;;;34.31;36.44;99705.06;4929300;28;96896;-80
2021/07/28 09:18:40;;;;;;;5.50;4.32;;;;;;;33.65;38.30;99711.75;4913240;28;101571;-80
2021/07/28 09:21:34;;;;;;;6.82;4.20;;;;;;;33.29;38.05;99710.44;4928810;28;101536;-81
2021/07/28 09:24:00;;;;;;;7.63;4.03;;;;;;;33.45;37.60;99714.53;4904071;28;96954;-83
2021/07/28 09:26:44;;;;;;;7.80;4.32;;;;;;;33.39;37.22;99710.78;4928640;28;97393;-81
2021/07/28 09:29:11;;;;;;;7.80;4.20;;;;;;;33.17;37.58;99712.97;4931390;28;99383;-81
2021/07/28 09:31:51;;;;;;;5.82;3.88;;;;;;;32.99;38.20;99708.22;4929959;28;100864;-80
2021/07/28 09:34:21;;;;;;;8.02;3.75;;;;;;;32.66;39.08;99708.25;4928585;28;96779;-81
2021/07/28 09:36:52;;;;;;;10.43;4.20;;;;;;;32.85;39.36;99712.00;4930239;28;96905;-79
2021/07/28 09:39:37;;;;;;;10.98;4.72;;;;;;;33.56;38.01;99705.72;4928934;28;97609;-78
2021/07/28 09:42:19;;;;;;;9.82;3.65;;;;;;;33.40;37.84;99712.47;4927967;28;100837;-79
2021/07/28 09:44:53;;;;;;;9.95;4.18;;;;;;;33.29;38.16;99713.16;4929683;28;97351;-79
2021/07/28 09:47:23;;;;;;;8.35;4.30;;;;;;;33.47;37.72;99718.72;4931475;28;97151;-78
2021/07/28 09:50:21;;;;;;;8.23;4.18;;;;;;;33.19;38.12;99716.28;4930930;28;101629;-78
2021/07/28 09:52:51;;;;;;;8.60;4.15;;;;;;;33.66;37.94;99707.97;4902464;28;102202;-78
2021/07/28 09:55:29;;;;;;;9.43;4.30;;;;;;;34.11;37.85;99708.78;4916283;28;96910;-79
2021/07/28 09:57:56;;;;;;;7.07;4.20;;;;;;;34.40;36.34;99699.13;4933288;28;96831;-84
2021/07/28 10:00:23;;;;;;;5.97;3.65;;;;;;;34.75;35.82;99697.78;4932138;28;101551;-83
2021/07/28 10:02:50;;;;;;;8.00;3.67;;;;;;;34.62;36.18;99696.88;4925425;28;102058;-82
2021/07/28 10:05:18;;;;;;;9.45;4.63;;;;;;;34.21;36.46;99694.66;4921489;28;97074;-83
2021/07/28 10:07:43;;;;;;;15.13;5.18;;;;;;;33.77;37.67;99699.13;4929389;28;96927;-86
2021/07/28 10:10:11;;;;;;;5.82;4.38;;;;;;;33.66;38.13;99697.94;4927061;28;99983;-85
2021/07/28 10:12:38;;;;;;;6.00;4.28;;;;;;;33.56;38.09;99689.41;4912358;28;97781;-86
2021/07/28 10:15:08;;;;;;;7.25;3.80;;;;;;;33.41;38.80;99680.66;4911579;28;97297;-86
2021/07/28 10:17:39;;;;;;;8.32;4.15;;;;;;;33.49;38.36;99694.03;4931230;28;97019;-86
2021/07/28 10:20:06;;;;;;;4.70;4.00;;;;;;;33.79;38.50;99686.97;4930443;28;97649;-85
2021/07/28 10:22:32;;;;;;;7.80;4.22;;;;;;;34.14;38.62;99677.53;4930510;28;99926;-84
2021/07/28 10:24:58;;;;;;;6.95;4.78;;;;;;;34.05;38.79;99689.78;4930284;28;97208;-84
2021/07/28 10:27:24;;;;;;;8.10;4.68;;;;;;;34.16;37.93;99678.16;4931195;28;97115;-85
2021/07/28 10:29:50;;;;;;;8.95;4.30;;;;;;;34.21;37.81;99676.44;4898529;28;101449;-84
2021/07/28 10:32:32;;;;;;;7.38;4.40;;;;;;;34.45;37.65;99672.03;4914235;28;100730;-85
2021/07/28 10:35:16;;;;;;;5.78;4.30;;;;;;;34.26;37.31;99671.16;4930225;28;97158;-84
2021/07/28 10:37:42;;;;;;;8.75;4.22;;;;;;;34.26;36.88;99673.88;4930205;28;97371;-84
2021/07/28 10:40:27;;;;;;;10.98;3.92;;;;;;;34.11;38.14;99675.28;4922009;28;101332;-84
2021/07/28 10:42:53;;;;;;;8.00;4.40;;;;;;;34.00;38.40;99669.44;4910303;28;100205;-85
2021/07/28 10:45:18;;;;;;;4.50;3.90;;;;;;;33.83;37.57;99664.75;4894692;28;97296;-85
2021/07/28 10:47:44;;;;;;;5.95;4.43;;;;;;;33.75;38.34;99669.41;4912000;28;97054;-83
2021/07/28 10:50:22;;;;;;;8.65;4.28;;;;;;;33.64;38.93;99666.56;4894136;28;101150;-85
2021/07/28 10:52:57;;;;;;;12.02;4.00;;;;;;;33.59;39.36;99672.66;4910961;28;101416;-85
2021/07/28 10:55:25;;;;;;;7.07;4.10;;;;;;;33.57;39.24;99669.34;4910374;28;96745;-84
2021/07/28 10:57:54;;;;;;;9.20;4.75;;;;;;;33.41;39.62;99673.34;4911308;28;97041;-84
2021/07/28 11:00:38;;;;;;;9.52;4.43;;;;;;;33.18;40.15;99682.00;4909519;28;97455;-86
2021/07/28 11:03:06;;;;;;;7.25;3.90;;;;;;;33.11;40.22;99678.50;4893984;28;101570;-86
2021/07/28 11:05:34;;;;;;;7.63;4.20;;;;;;;33.09;40.26;99667.81;4900648;28;97006;-85
2021/07/28 11:08:06;;;;;;;13.20;4.13;;;;;;;33.06;39.80;99664.72;4929784;28;96938;-85
2021/07/28 11:11:01;;;;;;;8.23;4.50;;;;;;;33.09;39.27;99665.09;4929011;28;101648;-84
2021/07/28 11:13:28;;;;;;;15.00;4.43;;;;;;;33.12;39.61;99652.97;4896488;28;101955;-86
2021/07/28 11:16:02;;;;;;;8.65;3.90;;;;;;;33.03;39.79;99652.38;4922893;28;97207;-85
2021/07/28 11:18:39;;;;;;;7.85;3.83;;;;;;;32.92;39.45;99647.56;4929331;28;97268;-85
2021/07/28 11:21:23;;;;;;;7.75;4.63;;;;;;;33.07;39.72;99647.34;4908174;28;101463;-85
2021/07/28 11:23:48;;;;;;;7.72;4.15;;;;;;;32.81;39.24;99632.75;4942666;28;101518;-85
2021/07/28 11:26:37;;;;;;;8.65;3.92;;;;;;;32.68;39.39;99644.50;4923013;28;97535;-87
2021/07/28 11:29:08;;;;;;;7.47;3.40;;;;;;;32.76;39.75;99642.63;4920851;28;97256;-86
2021/07/28 11:31:39;;;;;;;5.55;4.47;;;;;;;32.70;39.88;99644.31;4908110;28;97946;-87